createdAt,value
2019-02-09T15:32:40.332Z,58.80
2019-02-09T15:35:10.703Z,59.60
2019-02-09T15:37:39.512Z,60.30
2019-02-09T15:40:10.681Z,61.70
2019-02-09T15:42:39.471Z,62.90
2019-02-09T15:45:09.626Z,63.90
2019-02-09T15:47:38.378Z,65.10
2019-02-09T15:50:07.379Z,66.20
2019-02-09T15:52:36.154Z,67.50
2019-02-09T15:55:05.088Z,68.30
2019-02-09T15:57:33.820Z,68.90
2019-02-09T16:00:02.622Z,70.30
2019-02-09T16:02:31.333Z,71.50
2019-02-09T16:05:00.191Z,72.50
2019-02-09T16:07:29.012Z,73.10
2019-02-09T16:09:57.723Z,74.10
2019-02-09T16:12:26.483Z,75.10
2019-02-09T16:14:55.223Z,75.80
2019-02-09T16:17:24.011Z,76.10
2019-02-09T16:19:52.744Z,76.50
2019-02-09T16:22:21.447Z,77.00
2019-02-09T16:24:50.188Z,77.40
2019-02-09T16:27:18.994Z,77.70
2019-02-09T16:29:47.763Z,77.50
2019-02-09T16:32:16.447Z,77.80
2019-02-09T16:34:45.267Z,78.10
2019-02-09T16:37:14.158Z,78.20
2019-02-09T16:39:42.910Z,78.20
2019-02-09T16:42:11.739Z,78.10
2019-02-09T16:44:40.445Z,77.70
2019-02-09T16:47:09.156Z,77.80
2019-02-09T16:49:37.877Z,77.30
2019-02-09T16:52:06.601Z,77.40
2019-02-09T16:54:35.331Z,77.30
2019-02-09T16:57:04.044Z,77.70
2019-02-09T16:59:32.798Z,77.70
2019-02-09T17:02:01.543Z,77.40
2019-02-09T17:04:33.294Z,77.60
2019-02-09T17:07:00.710Z,78.00
2019-02-09T17:09:29.506Z,78.10
2019-02-09T17:11:58.287Z,78.40
2019-02-09T17:14:27.035Z,79.00
2019-02-09T17:16:55.724Z,78.80
2019-02-09T17:19:24.442Z,79.20
2019-02-09T17:21:53.195Z,79.40
2019-02-09T17:24:21.973Z,79.70
2019-02-09T17:26:50.691Z,80.00
2019-02-09T17:29:19.447Z,80.30
2019-02-09T17:31:48.595Z,80.20
2019-02-09T17:34:17.361Z,80.70
2019-02-09T17:36:46.183Z,80.50
2019-02-09T17:39:14.934Z,80.50
2019-02-09T17:41:43.609Z,80.20
2019-02-09T17:44:12.407Z,79.90
2019-02-09T17:46:41.187Z,80.00
2019-02-09T17:49:10.009Z,79.90
2019-02-09T17:51:38.758Z,79.50
2019-02-09T17:54:07.527Z,80.00
2019-02-09T17:56:36.236Z,80.50
2019-02-09T17:59:05.011Z,81.10
2019-02-09T18:01:33.751Z,81.20
2019-02-09T18:04:02.593Z,81.50
2019-02-09T18:06:31.315Z,82.10
2019-02-09T18:09:00.115Z,82.50
2019-02-09T18:11:28.845Z,82.90
2019-02-09T18:13:57.648Z,83.40
2019-02-09T18:16:26.435Z,84.10
2019-02-09T18:18:55.152Z,84.70
2019-02-09T18:21:23.894Z,85.00
2019-02-09T18:23:52.667Z,85.30
2019-02-09T18:26:21.426Z,85.50
2019-02-09T18:28:50.169Z,85.70
2019-02-09T18:31:18.868Z,85.80
2019-02-09T18:33:47.940Z,85.70
2019-02-09T18:36:17.055Z,85.70
2019-02-09T18:38:46.175Z,85.70
2019-02-09T18:41:15.243Z,85.70
2019-02-09T18:43:44.232Z,85.70
2019-02-09T18:46:13.363Z,85.70
2019-02-09T18:48:42.299Z,85.40
2019-02-09T18:51:11.371Z,85.40
2019-02-09T18:53:40.448Z,85.20
2019-02-09T18:56:09.536Z,85.10
2019-02-09T18:58:38.645Z,85.00
2019-02-09T19:01:07.882Z,85.00
2019-02-09T19:03:36.935Z,84.70
2019-02-09T19:06:06.283Z,84.60
2019-02-09T19:08:35.323Z,84.70
2019-02-09T19:11:04.503Z,84.70
2019-02-09T19:13:33.632Z,85.00
2019-02-09T19:16:02.692Z,85.30
2019-02-09T19:18:31.754Z,85.70
2019-02-09T19:21:01.649Z,86.00
2019-02-09T19:23:30.699Z,86.40
2019-02-09T19:25:59.820Z,86.80
2019-02-09T19:28:28.770Z,87.30
2019-02-09T19:30:57.831Z,87.50
2019-02-09T19:33:27.206Z,87.80
2019-02-09T19:35:56.225Z,88.40
2019-02-09T19:38:25.359Z,88.60
2019-02-09T19:40:54.459Z,88.80
2019-02-09T19:43:23.494Z,89.10
2019-02-09T19:45:52.555Z,89.40
2019-02-09T19:48:21.703Z,89.70
2019-02-09T19:50:50.755Z,90.00
2019-02-09T19:53:19.963Z,90.00
2019-02-09T19:55:49.695Z,89.90
2019-02-09T19:58:18.735Z,89.90
2019-02-09T20:00:47.837Z,89.70
2019-02-09T20:03:16.827Z,89.50
2019-02-09T20:05:45.874Z,89.40
2019-02-09T20:08:14.948Z,89.40
2019-02-09T20:10:44.003Z,89.50
2019-02-09T20:13:13.105Z,89.50
2019-02-09T20:15:42.354Z,89.50
2019-02-09T20:18:11.447Z,89.50
2019-02-09T20:20:46.981Z,89.50
2019-02-09T20:23:11.432Z,89.40
2019-02-09T20:25:40.508Z,89.30
2019-02-09T20:28:09.699Z,89.20
2019-02-09T20:30:38.862Z,89.40
2019-02-09T20:33:08.055Z,89.50
2019-02-09T20:35:37.233Z,89.80
2019-02-09T20:38:06.845Z,89.80
2019-02-09T20:40:44.102Z,90.00
2019-02-09T20:43:14.975Z,90.00
2019-02-09T20:45:44.236Z,90.00
2019-02-09T20:48:13.322Z,90.00
2019-02-09T20:50:42.306Z,90.00
2019-02-09T20:53:11.503Z,89.90
2019-02-09T20:55:40.702Z,89.70
2019-02-09T20:58:11.700Z,89.50
2019-02-09T21:00:40.755Z,89.40
2019-02-09T21:03:09.837Z,89.40
2019-02-09T21:05:38.887Z,89.30
2019-02-09T21:08:08.055Z,89.10
2019-02-09T21:10:37.452Z,88.90
2019-02-09T21:13:06.996Z,88.70
2019-02-09T21:15:36.447Z,88.60
2019-02-09T21:18:06.615Z,88.40
2019-02-09T21:20:35.811Z,88.20
2019-02-09T21:23:05.149Z,88.00
2019-02-09T21:25:35.726Z,87.90
2019-02-09T21:28:05.089Z,87.80
2019-02-09T21:30:34.164Z,87.50
2019-02-09T21:33:03.303Z,87.10
2019-02-09T21:35:32.440Z,86.90
2019-02-09T21:38:01.502Z,86.60
2019-02-09T21:40:31.055Z,86.20
2019-02-09T21:43:00.683Z,86.00
2019-02-09T21:45:30.365Z,85.90
2019-02-09T21:47:59.350Z,85.80
2019-02-09T21:50:30.887Z,85.60
2019-02-09T21:52:59.975Z,85.20
2019-02-09T21:55:29.143Z,84.90
2019-02-09T21:57:58.197Z,84.70
2019-02-09T22:00:32.231Z,84.60
2019-02-09T22:03:01.327Z,84.50
2019-02-09T22:05:30.772Z,84.30
2019-02-09T22:07:59.817Z,84.00
2019-02-09T22:10:33.708Z,83.90
2019-02-09T22:13:00.277Z,84.60
2019-02-09T22:15:38.025Z,83.50
2019-02-09T22:18:00.516Z,83.60
2019-02-09T22:20:29.645Z,83.50
2019-02-09T22:22:58.847Z,83.20
2019-02-09T22:25:28.467Z,83.10
2019-02-09T22:27:57.831Z,83.00
2019-02-09T22:30:27.976Z,82.90
2019-02-09T22:32:57.408Z,82.80
2019-02-09T22:35:26.956Z,82.60
2019-02-09T22:37:56.611Z,82.70
2019-02-09T22:40:27.795Z,82.60
2019-02-09T22:42:56.897Z,82.50
2019-02-09T22:45:26.421Z,82.30
2019-02-09T22:47:55.727Z,82.10
2019-02-09T22:50:33.047Z,81.80
2019-02-09T22:53:02.114Z,81.70
2019-02-09T22:55:31.445Z,81.60
2019-02-09T22:58:00.496Z,81.40
2019-02-09T23:01:06.915Z,80.90
2019-02-09T23:03:40.646Z,80.80
2019-02-09T23:06:23.056Z,80.40
2019-02-09T23:08:52.171Z,80.30
2019-02-09T23:11:21.244Z,80.00
2019-02-09T23:13:50.383Z,79.50
2019-02-09T23:16:19.454Z,79.30
2019-02-09T23:18:48.486Z,79.30
2019-02-09T23:21:17.566Z,79.40
2019-02-09T23:23:46.560Z,81.10
2019-02-09T23:26:15.623Z,85.10
2019-02-09T23:28:44.599Z,84.90
2019-02-09T23:31:13.667Z,84.90
2019-02-09T23:33:42.792Z,84.50
2019-02-09T23:36:16.321Z,85.30
2019-02-09T23:38:42.591Z,86.00
2019-02-09T23:41:11.710Z,86.30
2019-02-09T23:43:40.711Z,88.40
2019-02-09T23:46:09.824Z,86.20
2019-02-09T23:48:38.871Z,86.20
2019-02-09T23:51:07.955Z,86.60
2019-02-09T23:53:36.951Z,86.90
2019-02-09T23:56:06.000Z,86.20
2019-02-09T23:58:34.970Z,86.80
